sensor_id;sensor_type;location;lat;lon;timestamp;pressure;altitude;pressure_sealevel;temperature;humidity
46087;BME280;31824;49.648;8.640;2023-07-16T00:01:58;100040.44;;;20.67;100.00
46087;BME280;31824;49.648;8.640;2023-07-16T00:05:01;100048.09;;;20.59;100.00
46087;BME280;31824;49.648;8.640;2023-07-16T00:08:03;100049.81;;;20.58;100.00
46087;BME280;31824;49.648;8.640;2023-07-16T00:11:05;100053.56;;;20.62;100.00
46087;BME280;31824;49.648;8.640;2023-07-16T00:14:07;100053.56;;;20.62;100.00
46087;BME280;31824;49.648;8.640;2023-07-16T00:17:09;100053.44;;;20.77;100.00
46087;BME280;31824;49.648;8.640;2023-07-16T00:20:12;100046.72;;;20.67;100.00
46087;BME280;31824;49.648;8.640;2023-07-16T00:23:14;100076.91;;;20.48;100.00
46087;BME280;31824;49.648;8.640;2023-07-16T00:26:16;100107.78;;;20.61;100.00
46087;BME280;31824;49.648;8.640;2023-07-16T00:29:18;100127.06;;;20.55;100.00
46087;BME280;31824;49.648;8.640;2023-07-16T00:32:20;100133.22;;;20.54;100.00
46087;BME280;31824;49.648;8.640;2023-07-16T00:35:23;100119.09;;;20.73;100.00
46087;BME280;31824;49.648;8.640;2023-07-16T00:38:25;100106.81;;;20.59;100.00
46087;BME280;31824;49.648;8.640;2023-07-16T00:41:27;100097.03;;;20.60;100.00
46087;BME280;31824;49.648;8.640;2023-07-16T00:44:29;100069.19;;;20.54;100.00
46087;BME280;31824;49.648;8.640;2023-07-16T00:47:31;100070.41;;;20.61;100.00
46087;BME280;31824;49.648;8.640;2023-07-16T00:50:34;100072.94;;;20.40;100.00
46087;BME280;31824;49.648;8.640;2023-07-16T00:53:41;100087.03;;;20.37;100.00
46087;BME280;31824;49.648;8.640;2023-07-16T00:56:45;100035.94;;;20.48;100.00
46087;BME280;31824;49.648;8.640;2023-07-16T00:59:47;100070.25;;;20.40;100.00
46087;BME280;31824;49.648;8.640;2023-07-16T01:02:51;100083.88;;;20.28;100.00
46087;BME280;31824;49.648;8.640;2023-07-16T01:05:57;100080.06;;;20.41;100.00
46087;BME280;31824;49.648;8.640;2023-07-16T01:09:03;100116.38;;;20.37;100.00
46087;BME280;31824;49.648;8.640;2023-07-16T01:12:08;100139.75;;;20.25;100.00
46087;BME280;31824;49.648;8.640;2023-07-16T01:15:10;100132.06;;;20.15;100.00
46087;BME280;31824;49.648;8.640;2023-07-16T01:18:13;100123.19;;;20.14;100.00
46087;BME280;31824;49.648;8.640;2023-07-16T01:21:19;100128.41;;;20.29;100.00
46087;BME280;31824;49.648;8.640;2023-07-16T01:24:46;100120.31;;;20.11;100.00
46087;BME280;31824;49.648;8.640;2023-07-16T01:28:06;100136.66;;;20.17;100.00
46087;BME280;31824;49.648;8.640;2023-07-16T01:31:15;100147.75;;;20.08;100.00
46087;BME280;31824;49.648;8.640;2023-07-16T01:34:19;100146.03;;;19.93;100.00
46087;BME280;31824;49.648;8.640;2023-07-16T01:37:21;100158.94;;;19.85;100.00
46087;BME280;31824;49.648;8.640;2023-07-16T01:40:23;100166.09;;;19.86;100.00
46087;BME280;31824;49.648;8.640;2023-07-16T01:43:25;100142.19;;;20.04;100.00
46087;BME280;31824;49.648;8.640;2023-07-16T01:46:28;100143.50;;;19.96;100.00
46087;BME280;31824;49.648;8.640;2023-07-16T01:49:31;100143.34;;;19.76;100.00
46087;BME280;31824;49.648;8.640;2023-07-16T01:52:33;100136.50;;;19.81;100.00
46087;BME280;31824;49.648;8.640;2023-07-16T01:55:53;100148.94;;;19.81;100.00
46087;BME280;31824;49.648;8.640;2023-07-16T01:58:55;100152.84;;;19.87;100.00
46087;BME280;31824;49.648;8.640;2023-07-16T02:01:58;100153.38;;;19.80;100.00
46087;BME280;31824;49.648;8.640;2023-07-16T02:05:01;100160.91;;;19.72;100.00
46087;BME280;31824;49.648;8.640;2023-07-16T02:08:03;100170.38;;;19.67;100.00
46087;BME280;31824;49.648;8.640;2023-07-16T02:11:07;100178.38;;;19.67;100.00
46087;BME280;31824;49.648;8.640;2023-07-16T02:14:08;100174.88;;;19.68;100.00
46087;BME280;31824;49.648;8.640;2023-07-16T02:17:12;100165.56;;;19.60;100.00
46087;BME280;31824;49.648;8.640;2023-07-16T02:20:15;100177.94;;;19.60;100.00
46087;BME280;31824;49.648;8.640;2023-07-16T02:23:17;100189.44;;;19.59;100.00
46087;BME280;31824;49.648;8.640;2023-07-16T02:26:18;100197.38;;;19.57;100.00
46087;BME280;31824;49.648;8.640;2023-07-16T02:29:20;100207.50;;;19.48;100.00
46087;BME280;31824;49.648;8.640;2023-07-16T02:32:23;100205.66;;;19.47;100.00
46087;BME280;31824;49.648;8.640;2023-07-16T02:35:26;100206.38;;;19.44;100.00
46087;BME280;31824;49.648;8.640;2023-07-16T02:38:29;100202.38;;;19.36;100.00
46087;BME280;31824;49.648;8.640;2023-07-16T02:41:31;100201.38;;;19.34;100.00
46087;BME280;31824;49.648;8.640;2023-07-16T02:44:33;100192.47;;;19.33;100.00
46087;BME280;31824;49.648;8.640;2023-07-16T02:47:36;100203.13;;;19.33;100.00
46087;BME280;31824;49.648;8.640;2023-07-16T02:50:38;100214.31;;;19.43;100.00
46087;BME280;31824;49.648;8.640;2023-07-16T02:53:40;100207.69;;;19.36;100.00
46087;BME280;31824;49.648;8.640;2023-07-16T02:56:42;100215.94;;;19.40;100.00
46087;BME280;31824;49.648;8.640;2023-07-16T02:59:44;100213.94;;;19.36;100.00
46087;BME280;31824;49.648;8.640;2023-07-16T03:02:47;100213.31;;;19.26;100.00
46087;BME280;31824;49.648;8.640;2023-07-16T03:05:51;100211.78;;;19.14;100.00
46087;BME280;31824;49.648;8.640;2023-07-16T03:08:53;100226.66;;;19.11;100.00
46087;BME280;31824;49.648;8.640;2023-07-16T03:11:55;100222.59;;;19.17;100.00
46087;BME280;31824;49.648;8.640;2023-07-16T03:14:56;100217.94;;;19.13;100.00
46087;BME280;31824;49.648;8.640;2023-07-16T03:17:59;100220.09;;;19.04;100.00
46087;BME280;31824;49.648;8.640;2023-07-16T03:21:02;100221.97;;;19.06;100.00
46087;BME280;31824;49.648;8.640;2023-07-16T03:24:04;100231.38;;;19.00;100.00
46087;BME280;31824;49.648;8.640;2023-07-16T03:27:06;100250.53;;;18.94;100.00
46087;BME280;31824;49.648;8.640;2023-07-16T03:30:19;100264.41;;;19.03;100.00
46087;BME280;31824;49.648;8.640;2023-07-16T03:33:22;100251.75;;;18.99;100.00
46087;BME280;31824;49.648;8.640;2023-07-16T03:36:24;100261.75;;;18.88;100.00
46087;BME280;31824;49.648;8.640;2023-07-16T03:39:26;100265.75;;;18.82;100.00
46087;BME280;31824;49.648;8.640;2023-07-16T03:42:29;100259.59;;;18.83;100.00
46087;BME280;31824;49.648;8.640;2023-07-16T03:45:31;100260.72;;;18.71;100.00
46087;BME280;31824;49.648;8.640;2023-07-16T03:48:34;100264.75;;;18.65;100.00
46087;BME280;31824;49.648;8.640;2023-07-16T03:51:36;100264.84;;;18.66;100.00
46087;BME280;31824;49.648;8.640;2023-07-16T03:54:38;100264.38;;;18.73;100.00
46087;BME280;31824;49.648;8.640;2023-07-16T03:57:40;100265.81;;;18.68;100.00
46087;BME280;31824;49.648;8.640;2023-07-16T04:00:43;100267.09;;;18.60;100.00
46087;BME280;31824;49.648;8.640;2023-07-16T04:03:47;100277.84;;;18.62;100.00
46087;BME280;31824;49.648;8.640;2023-07-16T04:06:49;100287.94;;;18.52;100.00
46087;BME280;31824;49.648;8.640;2023-07-16T04:09:51;100288.47;;;18.62;100.00
46087;BME280;31824;49.648;8.640;2023-07-16T04:12:52;100294.78;;;18.49;100.00
46087;BME280;31824;49.648;8.640;2023-07-16T04:15:54;100298.19;;;18.46;100.00
46087;BME280;31824;49.648;8.640;2023-07-16T04:18:58;100294.75;;;18.34;100.00
46087;BME280;31824;49.648;8.640;2023-07-16T04:22:00;100304.22;;;18.44;100.00
46087;BME280;31824;49.648;8.640;2023-07-16T04:25:02;100306.97;;;18.45;100.00
46087;BME280;31824;49.648;8.640;2023-07-16T04:28:05;100306.25;;;18.48;100.00
46087;BME280;31824;49.648;8.640;2023-07-16T04:31:07;100311.00;;;18.38;100.00
46087;BME280;31824;49.648;8.640;2023-07-16T04:34:10;100320.91;;;18.41;100.00
46087;BME280;31824;49.648;8.640;2023-07-16T04:37:12;100334.13;;;18.39;100.00
46087;BME280;31824;49.648;8.640;2023-07-16T04:40:13;100331.47;;;18.39;100.00
46087;BME280;31824;49.648;8.640;2023-07-16T04:43:15;100328.75;;;18.25;100.00
46087;BME280;31824;49.648;8.640;2023-07-16T04:46:17;100327.38;;;18.31;100.00
46087;BME280;31824;49.648;8.640;2023-07-16T04:49:20;100323.69;;;18.14;100.00
46087;BME280;31824;49.648;8.640;2023-07-16T04:52:22;100327.69;;;18.08;100.00
46087;BME280;31824;49.648;8.640;2023-07-16T04:55:24;100325.53;;;18.30;100.00
46087;BME280;31824;49.648;8.640;2023-07-16T04:58:26;100331.25;;;17.95;100.00
46087;BME280;31824;49.648;8.640;2023-07-16T05:01:27;100341.56;;;18.17;100.00
46087;BME280;31824;49.648;8.640;2023-07-16T05:04:31;100340.69;;;18.31;100.00
46087;BME280;31824;49.648;8.640;2023-07-16T05:07:33;100349.59;;;18.32;100.00
46087;BME280;31824;49.648;8.640;2023-07-16T05:10:35;100354.66;;;18.42;100.00
46087;BME280;31824;49.648;8.640;2023-07-16T05:13:37;100368.22;;;18.32;100.00
46087;BME280;31824;49.648;8.640;2023-07-16T05:16:38;100366.63;;;18.49;100.00
46087;BME280;31824;49.648;8.640;2023-07-16T05:19:42;100370.94;;;18.47;100.00
46087;BME280;31824;49.648;8.640;2023-07-16T05:22:44;100375.81;;;18.54;100.00
46087;BME280;31824;49.648;8.640;2023-07-16T05:25:46;100374.59;;;18.49;100.00
46087;BME280;31824;49.648;8.640;2023-07-16T05:28:48;100378.56;;;18.55;100.00
46087;BME280;31824;49.648;8.640;2023-07-16T05:31:50;100379.44;;;18.69;100.00
46087;BME280;31824;49.648;8.640;2023-07-16T05:34:54;100379.06;;;18.63;100.00
46087;BME280;31824;49.648;8.640;2023-07-16T05:38:14;100387.78;;;18.61;100.00
46087;BME280;31824;49.648;8.640;2023-07-16T05:41:15;100389.00;;;18.66;100.00
46087;BME280;31824;49.648;8.640;2023-07-16T05:44:17;100394.56;;;18.42;100.00
46087;BME280;31824;49.648;8.640;2023-07-16T05:47:19;100389.84;;;18.51;100.00
46087;BME280;31824;49.648;8.640;2023-07-16T05:50:22;100389.59;;;18.62;100.00
46087;BME280;31824;49.648;8.640;2023-07-16T05:53:25;100392.38;;;18.63;100.00
46087;BME280;31824;49.648;8.640;2023-07-16T05:56:26;100393.31;;;18.50;100.00
46087;BME280;31824;49.648;8.640;2023-07-16T05:59:28;100381.06;;;18.52;100.00
46087;BME280;31824;49.648;8.640;2023-07-16T06:02:30;100393.31;;;18.50;100.00
46087;BME280;31824;49.648;8.640;2023-07-16T06:05:33;100401.47;;;18.53;100.00
46087;BME280;31824;49.648;8.640;2023-07-16T06:08:36;100388.69;;;18.61;100.00
46087;BME280;31824;49.648;8.640;2023-07-16T06:11:38;100386.75;;;18.59;100.00
46087;BME280;31824;49.648;8.640;2023-07-16T06:14:40;100385.91;;;18.31;100.00
46087;BME280;31824;49.648;8.640;2023-07-16T06:17:41;100396.06;;;18.52;100.00
46087;BME280;31824;49.648;8.640;2023-07-16T06:20:45;100397.00;;;18.52;100.00
46087;BME280;31824;49.648;8.640;2023-07-16T06:23:47;100394.22;;;18.79;100.00
46087;BME280;31824;49.648;8.640;2023-07-16T06:26:49;100406.00;;;18.83;100.00
46087;BME280;31824;49.648;8.640;2023-07-16T06:29:51;100402.34;;;18.81;100.00
46087;BME280;31824;49.648;8.640;2023-07-16T06:32:53;100405.28;;;18.85;100.00
46087;BME280;31824;49.648;8.640;2023-07-16T06:35:56;100406.56;;;19.05;100.00
46087;BME280;31824;49.648;8.640;2023-07-16T06:38:58;100403.69;;;19.02;100.00
46087;BME280;31824;49.648;8.640;2023-07-16T06:42:01;100406.09;;;18.84;100.00
46087;BME280;31824;49.648;8.640;2023-07-16T06:45:04;100405.81;;;18.93;100.00
46087;BME280;31824;49.648;8.640;2023-07-16T06:48:06;100404.78;;;18.91;100.00
46087;BME280;31824;49.648;8.640;2023-07-16T06:51:09;100406.44;;;18.76;100.00
46087;BME280;31824;49.648;8.640;2023-07-16T06:54:11;100416.75;;;19.13;100.00
46087;BME280;31824;49.648;8.640;2023-07-16T06:57:12;100411.91;;;19.20;100.00
46087;BME280;31824;49.648;8.640;2023-07-16T07:00:14;100412.25;;;19.12;100.00
46087;BME280;31824;49.648;8.640;2023-07-16T07:03:17;100411.03;;;19.06;100.00
46087;BME280;31824;49.648;8.640;2023-07-16T07:06:20;100412.31;;;19.13;100.00
46087;BME280;31824;49.648;8.640;2023-07-16T07:09:23;100418.22;;;19.22;100.00
46087;BME280;31824;49.648;8.640;2023-07-16T07:12:25;100420.53;;;19.16;100.00
46087;BME280;31824;49.648;8.640;2023-07-16T07:15:26;100416.56;;;19.10;100.00
46087;BME280;31824;49.648;8.640;2023-07-16T07:18:28;100423.13;;;19.30;100.00
46087;BME280;31824;49.648;8.640;2023-07-16T07:21:31;100426.31;;;19.39;100.00
46087;BME280;31824;49.648;8.640;2023-07-16T07:24:33;100422.94;;;19.56;100.00
46087;BME280;31824;49.648;8.640;2023-07-16T07:27:35;100418.06;;;19.49;100.00
46087;BME280;31824;49.648;8.640;2023-07-16T07:30:37;100421.00;;;19.84;100.00
46087;BME280;31824;49.648;8.640;2023-07-16T07:33:38;100418.78;;;20.06;100.00
46087;BME280;31824;49.648;8.640;2023-07-16T07:36:42;100419.06;;;20.28;100.00
46087;BME280;31824;49.648;8.640;2023-07-16T07:39:44;100411.97;;;20.12;100.00
46087;BME280;31824;49.648;8.640;2023-07-16T07:42:49;100421.22;;;20.50;100.00
46087;BME280;31824;49.648;8.640;2023-07-16T07:45:50;100418.66;;;20.51;100.00
46087;BME280;31824;49.648;8.640;2023-07-16T07:48:52;100422.00;;;20.64;100.00
46087;BME280;31824;49.648;8.640;2023-07-16T07:51:56;100421.53;;;20.39;100.00
46087;BME280;31824;49.648;8.640;2023-07-16T07:54:58;100420.63;;;20.39;100.00
46087;BME280;31824;49.648;8.640;2023-07-16T07:58:00;100423.63;;;20.45;100.00
46087;BME280;31824;49.648;8.640;2023-07-16T08:01:05;100418.97;;;20.89;100.00
46087;BME280;31824;49.648;8.640;2023-07-16T08:04:07;100433.38;;;20.76;100.00
46087;BME280;31824;49.648;8.640;2023-07-16T08:07:10;100438.44;;;20.55;100.00
46087;BME280;31824;49.648;8.640;2023-07-16T08:10:12;100427.50;;;20.67;100.00
46087;BME280;31824;49.648;8.640;2023-07-16T08:13:14;100440.72;;;20.80;100.00
46087;BME280;31824;49.648;8.640;2023-07-16T08:16:16;100439.38;;;20.72;100.00
46087;BME280;31824;49.648;8.640;2023-07-16T08:19:18;100423.56;;;20.60;100.00
46087;BME280;31824;49.648;8.640;2023-07-16T08:22:21;100438.66;;;20.60;100.00
46087;BME280;31824;49.648;8.640;2023-07-16T08:25:25;100433.25;;;20.58;100.00
46087;BME280;31824;49.648;8.640;2023-07-16T08:28:28;100436.44;;;20.67;100.00
46087;BME280;31824;49.648;8.640;2023-07-16T08:31:30;100434.66;;;20.51;100.00
46087;BME280;31824;49.648;8.640;2023-07-16T08:34:32;100431.75;;;20.47;100.00
46087;BME280;31824;49.648;8.640;2023-07-16T08:37:35;100425.16;;;20.56;100.00
46087;BME280;31824;49.648;8.640;2023-07-16T08:40:55;100429.72;;;20.74;100.00
46087;BME280;31824;49.648;8.640;2023-07-16T08:44:35;100437.91;;;20.77;100.00
46087;BME280;31824;49.648;8.640;2023-07-16T08:47:37;100433.88;;;20.69;100.00
46087;BME280;31824;49.648;8.640;2023-07-16T08:50:41;100432.63;;;20.79;100.00
46087;BME280;31824;49.648;8.640;2023-07-16T08:53:45;100444.88;;;20.91;100.00
46087;BME280;31824;49.648;8.640;2023-07-16T08:56:47;100437.22;;;20.81;100.00
46087;BME280;31824;49.648;8.640;2023-07-16T08:59:50;100438.88;;;20.79;100.00
46087;BME280;31824;49.648;8.640;2023-07-16T09:02:52;100431.56;;;20.60;100.00
46087;BME280;31824;49.648;8.640;2023-07-16T09:06:12;100443.81;;;20.71;100.00
46087;BME280;31824;49.648;8.640;2023-07-16T09:09:22;100435.34;;;20.64;100.00
46087;BME280;31824;49.648;8.640;2023-07-16T09:12:24;100436.22;;;20.79;100.00
46087;BME280;31824;49.648;8.640;2023-07-16T09:15:28;100431.47;;;20.73;100.00
46087;BME280;31824;49.648;8.640;2023-07-16T09:18:30;100436.56;;;21.02;100.00
46087;BME280;31824;49.648;8.640;2023-07-16T09:21:32;100431.72;;;21.11;100.00
46087;BME280;31824;49.648;8.640;2023-07-16T09:24:37;100441.81;;;21.17;100.00
46087;BME280;31824;49.648;8.640;2023-07-16T09:27:39;100431.09;;;21.33;100.00
46087;BME280;31824;49.648;8.640;2023-07-16T09:30:41;100431.13;;;21.51;100.00
46087;BME280;31824;49.648;8.640;2023-07-16T09:33:46;100433.75;;;21.50;100.00
46087;BME280;31824;49.648;8.640;2023-07-16T09:36:48;100429.06;;;21.62;100.00
46087;BME280;31824;49.648;8.640;2023-07-16T09:39:53;100421.44;;;21.88;100.00
46087;BME280;31824;49.648;8.640;2023-07-16T09:43:14;100433.50;;;21.62;100.00
46087;BME280;31824;49.648;8.640;2023-07-16T09:46:17;100430.75;;;21.44;100.00
46087;BME280;31824;49.648;8.640;2023-07-16T09:49:19;100431.13;;;21.51;100.00
46087;BME280;31824;49.648;8.640;2023-07-16T09:52:21;100431.66;;;21.61;100.00
46087;BME280;31824;49.648;8.640;2023-07-16T09:55:24;100444.19;;;21.45;100.00
46087;BME280;31824;49.648;8.640;2023-07-16T09:58:27;100442.88;;;21.37;100.00
46087;BME280;31824;49.648;8.640;2023-07-16T10:01:29;100437.56;;;21.20;100.00
46087;BME280;31824;49.648;8.640;2023-07-16T10:04:50;100432.88;;;21.33;100.00
46087;BME280;31824;49.648;8.640;2023-07-16T10:07:53;100435.56;;;21.51;100.00
46087;BME280;31824;49.648;8.640;2023-07-16T10:10:56;100429.16;;;21.47;100.00
46087;BME280;31824;49.648;8.640;2023-07-16T10:13:59;100438.22;;;21.33;100.00
46087;BME280;31824;49.648;8.640;2023-07-16T10:17:01;100440.13;;;21.35;100.00
46087;BME280;31824;49.648;8.640;2023-07-16T10:20:07;100437.75;;;21.58;100.00
46087;BME280;31824;49.648;8.640;2023-07-16T10:23:12;100428.47;;;21.68;100.00
46087;BME280;31824;49.648;8.640;2023-07-16T10:26:16;100431.56;;;21.94;100.00
46087;BME280;31824;49.648;8.640;2023-07-16T10:29:21;100425.06;;;22.06;100.00
46087;BME280;31824;49.648;8.640;2023-07-16T10:32:26;100433.53;;;22.34;100.00
46087;BME280;31824;49.648;8.640;2023-07-16T10:35:29;100434.63;;;22.37;100.00
46087;BME280;31824;49.648;8.640;2023-07-16T10:38:40;100429.41;;;22.22;100.00
46087;BME280;31824;49.648;8.640;2023-07-16T10:41:44;100425.66;;;22.37;100.00
46087;BME280;31824;49.648;8.640;2023-07-16T10:44:49;100425.38;;;22.68;100.00
46087;BME280;31824;49.648;8.640;2023-07-16T10:47:54;100438.53;;;23.01;100.00
46087;BME280;31824;49.648;8.640;2023-07-16T10:50:56;100433.63;;;22.73;100.00
46087;BME280;31824;49.648;8.640;2023-07-16T10:53:58;100435.09;;;22.66;100.00
46087;BME280;31824;49.648;8.640;2023-07-16T10:57:03;100436.03;;;23.06;100.00
46087;BME280;31824;49.648;8.640;2023-07-16T11:00:10;100426.25;;;23.26;100.00
46087;BME280;31824;49.648;8.640;2023-07-16T11:03:14;100426.44;;;22.91;100.00
46087;BME280;31824;49.648;8.640;2023-07-16T11:06:18;100429.34;;;22.76;100.00
46087;BME280;31824;49.648;8.640;2023-07-16T11:09:21;100422.50;;;22.83;100.00
46087;BME280;31824;49.648;8.640;2023-07-16T11:12:24;100428.69;;;22.63;100.00
46087;BME280;31824;49.648;8.640;2023-07-16T11:15:32;100424.19;;;23.01;100.00
46087;BME280;31824;49.648;8.640;2023-07-16T11:18:35;100423.88;;;23.13;100.00
46087;BME280;31824;49.648;8.640;2023-07-16T11:21:37;100419.59;;;22.98;100.00
46087;BME280;31824;49.648;8.640;2023-07-16T11:24:40;100408.75;;;23.55;100.00
46087;BME280;31824;49.648;8.640;2023-07-16T11:27:43;100421.13;;;23.92;100.00
46087;BME280;31824;49.648;8.640;2023-07-16T11:30:45;100404.28;;;23.97;100.00
46087;BME280;31824;49.648;8.640;2023-07-16T11:33:47;100410.91;;;24.05;100.00
46087;BME280;31824;49.648;8.640;2023-07-16T11:36:49;100412.31;;;23.75;100.00
46087;BME280;31824;49.648;8.640;2023-07-16T11:39:55;100402.25;;;23.49;100.00
46087;BME280;31824;49.648;8.640;2023-07-16T11:43:08;100400.16;;;24.05;100.00
46087;BME280;31824;49.648;8.640;2023-07-16T11:46:15;100403.69;;;23.83;100.00
46087;BME280;31824;49.648;8.640;2023-07-16T11:49:20;100408.44;;;23.88;100.00
46087;BME280;31824;49.648;8.640;2023-07-16T11:52:23;100402.75;;;23.82;100.00
46087;BME280;31824;49.648;8.640;2023-07-16T11:55:27;100408.09;;;24.24;100.00
46087;BME280;31824;49.648;8.640;2023-07-16T11:58:30;100398.47;;;24.52;100.00
46087;BME280;31824;49.648;8.640;2023-07-16T12:01:32;100405.38;;;24.68;100.00
46087;BME280;31824;49.648;8.640;2023-07-16T12:04:34;100404.69;;;24.51;100.00
46087;BME280;31824;49.648;8.640;2023-07-16T12:07:37;100410.00;;;24.27;100.00
46087;BME280;31824;49.648;8.640;2023-07-16T12:10:39;100396.47;;;23.82;100.00
46087;BME280;31824;49.648;8.640;2023-07-16T12:13:42;100389.41;;;23.84;100.00
46087;BME280;31824;49.648;8.640;2023-07-16T12:16:44;100391.16;;;24.04;100.00
46087;BME280;31824;49.648;8.640;2023-07-16T12:19:46;100399.94;;;24.00;100.00
46087;BME280;31824;49.648;8.640;2023-07-16T12:22:48;100389.34;;;24.26;100.00
46087;BME280;31824;49.648;8.640;2023-07-16T12:25:50;100379.44;;;24.93;100.00
46087;BME280;31824;49.648;8.640;2023-07-16T12:28:53;100383.19;;;24.98;100.00
46087;BME280;31824;49.648;8.640;2023-07-16T12:31:55;100387.53;;;24.70;100.00
46087;BME280;31824;49.648;8.640;2023-07-16T12:34:57;100376.06;;;24.74;100.00
46087;BME280;31824;49.648;8.640;2023-07-16T12:37:59;100375.66;;;24.64;100.00
46087;BME280;31824;49.648;8.640;2023-07-16T12:41:01;100385.72;;;24.47;100.00
46087;BME280;31824;49.648;8.640;2023-07-16T12:44:05;100374.78;;;25.13;100.00
46087;BME280;31824;49.648;8.640;2023-07-16T12:47:07;100374.25;;;25.48;100.00
46087;BME280;31824;49.648;8.640;2023-07-16T12:50:10;100381.00;;;24.86;100.00
46087;BME280;31824;49.648;8.640;2023-07-16T12:53:12;100379.19;;;24.40;100.00
46087;BME280;31824;49.648;8.640;2023-07-16T12:56:14;100371.44;;;24.25;100.00
46087;BME280;31824;49.648;8.640;2023-07-16T12:59:18;100363.81;;;24.60;100.00
46087;BME280;31824;49.648;8.640;2023-07-16T13:02:20;100362.31;;;25.65;100.00
46087;BME280;31824;49.648;8.640;2023-07-16T13:05:22;100369.56;;;25.68;100.00
46087;BME280;31824;49.648;8.640;2023-07-16T13:08:24;100369.06;;;26.07;100.00
46087;BME280;31824;49.648;8.640;2023-07-16T13:11:26;100366.97;;;25.98;100.00
46087;BME280;31824;49.648;8.640;2023-07-16T13:14:29;100376.56;;;25.90;100.00
46087;BME280;31824;49.648;8.640;2023-07-16T13:17:31;100373.38;;;26.29;100.00
46087;BME280;31824;49.648;8.640;2023-07-16T13:20:33;100374.53;;;26.37;100.00
46087;BME280;31824;49.648;8.640;2023-07-16T13:23:35;100365.72;;;25.87;100.00
46087;BME280;31824;49.648;8.640;2023-07-16T13:26:38;100369.59;;;26.22;100.00
46087;BME280;31824;49.648;8.640;2023-07-16T13:29:42;100360.47;;;26.19;100.00
46087;BME280;31824;49.648;8.640;2023-07-16T13:32:44;100366.69;;;26.16;100.00
46087;BME280;31824;49.648;8.640;2023-07-16T13:35:46;100368.97;;;26.04;100.00
46087;BME280;31824;49.648;8.640;2023-07-16T13:38:48;100362.09;;;25.86;100.00
46087;BME280;31824;49.648;8.640;2023-07-16T13:41:49;100364.53;;;26.63;100.00
46087;BME280;31824;49.648;8.640;2023-07-16T13:44:53;100362.53;;;26.56;100.00
46087;BME280;31824;49.648;8.640;2023-07-16T13:47:55;100371.28;;;26.49;100.00
46087;BME280;31824;49.648;8.640;2023-07-16T13:50:57;100357.47;;;26.67;100.00
46087;BME280;31824;49.648;8.640;2023-07-16T13:53:59;100356.78;;;26.44;100.00
46087;BME280;31824;49.648;8.640;2023-07-16T13:57:19;100353.81;;;26.65;100.00
46087;BME280;31824;49.648;8.640;2023-07-16T14:00:23;100356.28;;;26.86;100.00
46087;BME280;31824;49.648;8.640;2023-07-16T14:03:24;100364.09;;;26.77;100.00
46087;BME280;31824;49.648;8.640;2023-07-16T14:06:26;100368.75;;;26.54;100.00
46087;BME280;31824;49.648;8.640;2023-07-16T14:09:28;100358.09;;;26.58;100.00
46087;BME280;31824;49.648;8.640;2023-07-16T14:12:30;100339.81;;;26.77;100.00
46087;BME280;31824;49.648;8.640;2023-07-16T14:15:33;100357.78;;;26.76;100.00
46087;BME280;31824;49.648;8.640;2023-07-16T14:18:35;100346.16;;;27.11;100.00
46087;BME280;31824;49.648;8.640;2023-07-16T14:21:36;100353.84;;;26.95;100.00
46087;BME280;31824;49.648;8.640;2023-07-16T14:24:38;100352.00;;;27.28;100.00
46087;BME280;31824;49.648;8.640;2023-07-16T14:27:41;100345.19;;;26.75;100.00
46087;BME280;31824;49.648;8.640;2023-07-16T14:30:44;100352.81;;;26.04;100.00
46087;BME280;31824;49.648;8.640;2023-07-16T14:33:46;100337.69;;;26.67;100.00
46087;BME280;31824;49.648;8.640;2023-07-16T14:36:47;100338.38;;;26.90;100.00
46087;BME280;31824;49.648;8.640;2023-07-16T14:39:50;100348.25;;;27.21;100.00
46087;BME280;31824;49.648;8.640;2023-07-16T14:42:52;100348.44;;;27.61;100.00
46087;BME280;31824;49.648;8.640;2023-07-16T14:45:55;100345.69;;;27.59;100.00
46087;BME280;31824;49.648;8.640;2023-07-16T14:48:57;100344.50;;;27.16;100.00
46087;BME280;31824;49.648;8.640;2023-07-16T14:51:59;100335.09;;;27.69;100.00
46087;BME280;31824;49.648;8.640;2023-07-16T14:55:01;100339.09;;;27.48;100.00
46087;BME280;31824;49.648;8.640;2023-07-16T14:58:03;100336.22;;;27.08;100.00
46087;BME280;31824;49.648;8.640;2023-07-16T15:01:06;100321.00;;;26.78;100.00
46087;BME280;31824;49.648;8.640;2023-07-16T15:04:09;100326.38;;;27.10;100.00
46087;BME280;31824;49.648;8.640;2023-07-16T15:07:12;100329.75;;;27.03;100.00
46087;BME280;31824;49.648;8.640;2023-07-16T15:10:14;100335.22;;;26.73;100.00
46087;BME280;31824;49.648;8.640;2023-07-16T15:13:16;100337.69;;;27.30;100.00
46087;BME280;31824;49.648;8.640;2023-07-16T15:16:19;100328.22;;;27.45;100.00
46087;BME280;31824;49.648;8.640;2023-07-16T15:19:22;100326.25;;;27.06;100.00
46087;BME280;31824;49.648;8.640;2023-07-16T15:22:23;100334.56;;;27.13;100.00
46087;BME280;31824;49.648;8.640;2023-07-16T15:25:25;100327.09;;;27.05;100.00
46087;BME280;31824;49.648;8.640;2023-07-16T15:28:27;100319.56;;;27.25;100.00
46087;BME280;31824;49.648;8.640;2023-07-16T15:31:31;100315.59;;;27.10;100.00
46087;BME280;31824;49.648;8.640;2023-07-16T15:34:33;100327.69;;;27.26;100.00
46087;BME280;31824;49.648;8.640;2023-07-16T15:37:35;100322.00;;;27.48;100.00
46087;BME280;31824;49.648;8.640;2023-07-16T15:40:37;100312.53;;;27.65;100.00
46087;BME280;31824;49.648;8.640;2023-07-16T15:43:38;100309.00;;;27.68;100.00
46087;BME280;31824;49.648;8.640;2023-07-16T15:46:42;100319.88;;;27.71;100.00